Terminal Aerodrome Forecast
Issued by NWS

Home | Current Version | Previous Version | Text Only | Print | Product List | Glossary On
Versions: 1 2 3 4 5 6 7 8 9 10 11 12 13 14 15 16 17 18 19 20 21 22 23 24 25 26 27 28
000
FTUS41 KPBZ 152334
TAFHLG
TAF
KHLG 152334Z 1600/1624 25010G18KT 6SM -SHSN BKN030
     FM160100 25011G20KT P6SM VCSH BKN025
     FM160600 26009KT P6SM BKN035
     FM161800 24009KT P6SM SCT150=

USA.gov is the U.S. government's official web portal to all federal, state and local government web resources and services.